createdAt,value
2023-02-26T00:10:17.068Z,96.20
2023-02-26T00:35:34.211Z,97.10
2023-02-26T01:00:53.190Z,97.50
2023-02-26T01:35:49.311Z,93.10
2023-02-26T01:56:03.387Z,91.90
2023-02-26T02:27:03.343Z,91.00
2023-02-26T03:22:34.044Z,92.10
2023-02-26T03:53:03.272Z,91.50
2023-02-26T04:17:55.638Z,89.70
2023-02-26T04:43:49.158Z,89.90
2023-02-26T05:13:42.068Z,90.20
2023-02-26T05:34:25.020Z,91.80
2023-02-26T05:59:42.791Z,93.80
2023-02-26T07:10:55.689Z,84.40
2023-02-26T07:41:17.143Z,82.70
2023-02-26T08:01:42.812Z,81.40
2023-02-26T08:26:37.275Z,81.30
2023-02-26T09:12:33.779Z,80.80
2023-02-26T09:37:37.565Z,81.90
2023-02-26T10:07:52.893Z,82.20
2023-02-26T10:43:22.474Z,84.20
2023-02-26T11:04:04.879Z,85.70
2023-02-26T11:28:55.284Z,78.60
2023-02-26T11:49:15.403Z,76.20
2023-02-26T12:14:55.659Z,77.00
2023-02-26T12:55:20.444Z,77.30
2023-02-26T13:26:11.798Z,75.00
2023-02-26T13:51:24.679Z,76.00
2023-02-26T14:16:35.780Z,75.70
2023-02-26T14:51:48.581Z,75.90
2023-02-26T15:27:22.825Z,78.10
2023-02-26T15:57:36.949Z,80.30
2023-02-26T16:28:08.975Z,80.90
2023-02-26T17:44:12.420Z,82.40
2023-02-26T17:59:43.364Z,82.20
2023-02-26T18:25:03.779Z,81.80
2023-02-26T18:50:37.938Z,84.20
2023-02-26T19:20:55.499Z,81.60
2023-02-26T20:01:31.704Z,80.30
2023-02-26T20:31:28.806Z,76.30
2023-02-26T21:01:58.959Z,76.40
2023-02-26T21:22:37.174Z,76.90
2023-02-26T21:58:09.639Z,79.20
2023-02-26T22:22:51.908Z,82.40
2023-02-26T23:24:23.572Z,86.00
2023-02-26T23:49:05.478Z,82.80
